createdAt,value
2023-04-15T01:33:47.731Z,99044.06
2023-04-15T01:36:51.453Z,99035.03
2023-04-15T01:39:54.956Z,99040.37
2023-04-15T01:42:58.564Z,99036.97
2023-04-15T01:46:01.707Z,99047.44
2023-04-15T01:49:04.696Z,99059.09
2023-04-15T01:52:08.124Z,99043.34
2023-04-15T01:55:12.732Z,99041.22
2023-04-15T01:58:15.774Z,99044.81
2023-04-15T02:01:20.194Z,99049.59
2023-04-15T02:04:23.734Z,99055.47
2023-04-15T02:07:26.664Z,99052.72
2023-04-15T02:10:29.888Z,99055.63
2023-04-15T02:13:32.785Z,99051.66
2023-04-15T02:16:36.184Z,99053.66
2023-04-15T02:19:40.500Z,99045.59
2023-04-15T02:22:43.927Z,99051.53
2023-04-15T02:25:53.754Z,99057.34
2023-04-15T02:28:57.347Z,99063.41
2023-04-15T02:32:00.340Z,99072.94
2023-04-15T02:35:08.896Z,99068.31
2023-04-15T02:38:12.333Z,99070.53
2023-04-15T02:41:18.819Z,99075.22
2023-04-15T02:44:23.509Z,99073.53
2023-04-15T02:47:27.018Z,99066.28
2023-04-15T02:50:30.066Z,99065.31
2023-04-15T02:53:36.262Z,99061.03
2023-04-15T02:56:38.892Z,99062.47
2023-04-15T02:59:42.102Z,99071.97
2023-04-15T03:02:47.109Z,99068.31
2023-04-15T03:05:50.625Z,99064.63
2023-04-15T03:08:53.875Z,99061.16
2023-04-15T03:11:57.077Z,99061.75
2023-04-15T03:15:02.146Z,99057.31
2023-04-15T03:18:07.339Z,99056.00
2023-04-15T03:21:12.665Z,99050.69
2023-04-15T03:24:16.146Z,99049.38
2023-04-15T03:27:20.165Z,99039.13
2023-04-15T03:30:26.554Z,99048.06
2023-04-15T03:33:32.792Z,99054.84
2023-04-15T03:36:36.402Z,99052.72
2023-04-15T03:39:39.396Z,99053.91
2023-04-15T03:42:42.481Z,99059.59
2023-04-15T03:45:45.356Z,99061.75
2023-04-15T03:48:48.860Z,99066.16
2023-04-15T03:51:51.747Z,99058.63
2023-04-15T03:54:54.633Z,99052.00
2023-04-15T03:57:57.272Z,99057.09
2023-04-15T04:01:00.402Z,99061.38
2023-04-15T04:04:03.612Z,99056.63
2023-04-15T04:07:06.497Z,99052.94
2023-04-15T04:10:09.916Z,99049.59
2023-04-15T04:13:12.703Z,99056.84
2023-04-15T04:16:15.952Z,99062.00
2023-04-15T04:19:19.996Z,99053.72
2023-04-15T04:22:24.357Z,99057.25
2023-04-15T04:25:27.341Z,99051.31
2023-04-15T04:28:30.438Z,99052.28
2023-04-15T04:31:33.863Z,99057.16
2023-04-15T04:34:36.841Z,99059.19
2023-04-15T04:37:39.465Z,99059.19
2023-04-15T04:40:42.543Z,99063.03
2023-04-15T04:43:45.176Z,99057.16
2023-04-15T04:46:48.031Z,99057.28
2023-04-15T04:49:50.773Z,99055.41
2023-04-15T04:52:53.898Z,99056.09
2023-04-15T04:55:56.552Z,99057.00
2023-04-15T04:58:59.964Z,99054.63
2023-04-15T05:02:03.428Z,99060.75
2023-04-15T05:05:07.140Z,99058.53
2023-04-15T05:08:09.774Z,99063.59
2023-04-15T05:11:13.113Z,99059.06
2023-04-15T05:14:16.518Z,99060.56
2023-04-15T05:17:19.475Z,99065.88
2023-04-15T05:20:22.258Z,99069.56
2023-04-15T05:23:25.622Z,99075.38
2023-04-15T05:26:28.476Z,99069.84
2023-04-15T05:29:31.531Z,99072.50
2023-04-15T05:32:34.390Z,99066.44
2023-04-15T05:35:37.441Z,99076.34
2023-04-15T05:38:40.189Z,99084.28
2023-04-15T05:41:44.937Z,99077.50
2023-04-15T05:44:47.706Z,99088.78
2023-04-15T05:47:53.929Z,99083.72
2023-04-15T05:50:57.034Z,99088.06
2023-04-15T05:54:00.109Z,99088.41
2023-04-15T05:57:02.888Z,99083.97
2023-04-15T06:00:06.669Z,99083.31
2023-04-15T06:03:12.576Z,99092.50
2023-04-15T06:06:15.866Z,99098.69
2023-04-15T06:09:18.609Z,99097.22
2023-04-15T06:12:24.689Z,99098.50
2023-04-15T06:15:30.441Z,99098.84
2023-04-15T06:18:35.899Z,99103.94
2023-04-15T06:21:39.746Z,99100.81
2023-04-15T06:24:42.735Z,99099.25
2023-04-15T06:27:45.636Z,99112.00
2023-04-15T06:30:48.797Z,99108.75
2023-04-15T06:33:51.605Z,99116.59
2023-04-15T06:36:55.837Z,99116.56
2023-04-15T06:39:58.915Z,99124.63
2023-04-15T06:43:04.966Z,99129.50
2023-04-15T06:46:07.860Z,99128.38
2023-04-15T06:49:11.570Z,99125.09
2023-04-15T06:52:14.559Z,99125.37
2023-04-15T06:55:17.862Z,99131.16
2023-04-15T06:58:20.735Z,99134.81
2023-04-15T07:01:24.010Z,99135.75
2023-04-15T07:04:27.914Z,99139.94
2023-04-15T07:07:31.245Z,99142.13
2023-04-15T07:10:34.522Z,99138.66
2023-04-15T07:13:37.760Z,99141.59
2023-04-15T07:16:40.413Z,99141.56
2023-04-15T07:19:43.436Z,99141.13
2023-04-15T07:22:46.350Z,99139.19
2023-04-15T07:25:49.387Z,99146.41
2023-04-15T07:28:52.360Z,99154.16
2023-04-15T07:31:57.229Z,99145.72
2023-04-15T07:34:59.964Z,99149.09
2023-04-15T07:38:05.052Z,99142.94
2023-04-15T07:41:07.899Z,99142.75
2023-04-15T07:44:11.429Z,99140.34
2023-04-15T07:47:14.209Z,99146.59
2023-04-15T07:50:17.631Z,99151.41
2023-04-15T07:53:24.100Z,99157.91
2023-04-15T07:56:27.228Z,99157.53
2023-04-15T07:59:31.190Z,99155.63
2023-04-15T08:02:36.367Z,99152.53
2023-04-15T08:05:40.407Z,99155.81
2023-04-15T08:08:43.250Z,99152.88
2023-04-15T08:11:51.003Z,99156.28
2023-04-15T08:14:57.549Z,99156.94
2023-04-15T08:18:09.485Z,99155.34
2023-04-15T08:21:12.248Z,99149.91
2023-04-15T08:24:15.801Z,99151.47
2023-04-15T08:27:18.954Z,99161.88
2023-04-15T08:30:21.885Z,99161.44
2023-04-15T08:33:24.504Z,99156.44
2023-04-15T08:36:27.796Z,99166.19
2023-04-15T08:39:30.846Z,99173.28
2023-04-15T08:42:42.916Z,99170.66
2023-04-15T08:45:47.389Z,99172.38
2023-04-15T08:48:50.916Z,99175.91
2023-04-15T08:51:53.834Z,99178.78
2023-04-15T08:55:01.620Z,99184.25
2023-04-15T08:58:05.702Z,99185.28
2023-04-15T09:01:10.024Z,99181.38
2023-04-15T09:04:15.546Z,99184.03
2023-04-15T09:07:22.434Z,99185.37
2023-04-15T09:10:25.006Z,99180.41
2023-04-15T09:13:28.280Z,99185.19
2023-04-15T09:16:31.854Z,99180.44
2023-04-15T09:19:35.235Z,99189.25
2023-04-15T09:22:38.897Z,99191.13
2023-04-15T09:25:42.933Z,99184.19
2023-04-15T09:28:45.898Z,99191.88
2023-04-15T09:31:49.175Z,99188.34
2023-04-15T09:34:52.400Z,99190.53
2023-04-15T09:38:05.501Z,99191.06
2023-04-15T09:41:19.588Z,99181.25
2023-04-15T09:44:24.172Z,99196.47
2023-04-15T09:47:28.878Z,99200.16
2023-04-15T09:50:41.287Z,99202.03
2023-04-15T09:53:43.917Z,99190.22
2023-04-15T09:56:47.592Z,99185.00
2023-04-15T09:59:51.338Z,99190.25
2023-04-15T10:02:55.019Z,99191.44
2023-04-15T10:06:01.005Z,99195.47
2023-04-15T10:09:04.404Z,99186.81
2023-04-15T10:12:07.949Z,99205.66
2023-04-15T10:15:19.582Z,99204.19
2023-04-15T10:18:26.240Z,99204.44
2023-04-15T10:21:30.871Z,99199.59
2023-04-15T10:24:34.348Z,99204.00
2023-04-15T10:27:37.505Z,99201.53
2023-04-15T10:30:45.066Z,99210.78
2023-04-15T10:33:50.861Z,99208.81
2023-04-15T10:36:57.572Z,99207.59
2023-04-15T10:40:00.694Z,99206.44
2023-04-15T10:43:07.000Z,99215.87
2023-04-15T10:46:10.846Z,99218.34
2023-04-15T10:49:24.450Z,99201.03
2023-04-15T10:52:29.080Z,99210.31
2023-04-15T10:55:33.606Z,99231.22
2023-04-15T10:58:43.707Z,99211.59
2023-04-15T11:01:55.317Z,99220.47
2023-04-15T11:05:02.651Z,99224.31
2023-04-15T11:08:11.586Z,99232.38
2023-04-15T11:11:14.330Z,99230.72
2023-04-15T11:14:17.465Z,99236.81
2023-04-15T11:17:29.776Z,99227.94
2023-04-15T11:20:33.916Z,99230.13
2023-04-15T11:23:46.999Z,99234.13
2023-04-15T11:26:50.135Z,99233.06
2023-04-15T11:29:54.647Z,99237.53
2023-04-15T11:33:04.040Z,99236.75
2023-04-15T11:36:32.814Z,99235.41
2023-04-15T11:39:40.180Z,99227.75
2023-04-15T11:42:49.985Z,99230.87
2023-04-15T11:46:01.369Z,99227.50
2023-04-15T11:49:05.191Z,99235.81
2023-04-15T11:52:12.323Z,99230.66
2023-04-15T11:55:15.471Z,99244.22
2023-04-15T11:58:18.577Z,99228.63
2023-04-15T12:01:21.652Z,99244.47
2023-04-15T12:04:27.470Z,99248.75
2023-04-15T12:07:30.357Z,99252.31
2023-04-15T12:10:35.641Z,99253.75
2023-04-15T12:13:41.865Z,99249.25
2023-04-15T12:16:49.214Z,99248.25
2023-04-15T12:19:57.195Z,99243.19
2023-04-15T12:23:07.258Z,99248.25
2023-04-15T12:26:10.657Z,99239.03
2023-04-15T12:29:16.353Z,99233.84
2023-04-15T12:32:22.933Z,99248.09
2023-04-15T12:35:25.802Z,99247.53
2023-04-15T12:38:28.695Z,99246.22
2023-04-15T12:41:32.437Z,99247.34
2023-04-15T12:44:36.329Z,99251.69
2023-04-15T12:47:39.518Z,99250.16
2023-04-15T12:50:42.480Z,99264.22
2023-04-15T12:53:45.595Z,99257.41
2023-04-15T12:56:50.186Z,99268.78
2023-04-15T12:59:55.101Z,99257.50
2023-04-15T13:02:58.120Z,99268.94
2023-04-15T13:06:02.338Z,99263.47
2023-04-15T13:09:06.211Z,99267.41
2023-04-15T13:12:16.541Z,99269.16
2023-04-15T13:15:22.474Z,99272.06
2023-04-15T13:18:25.425Z,99271.75
2023-04-15T13:21:32.256Z,99261.28
2023-04-15T13:24:36.263Z,99272.59
2023-04-15T13:27:39.023Z,99272.19
2023-04-15T13:30:43.214Z,99272.19
2023-04-15T13:33:46.185Z,99273.06
2023-04-15T13:36:49.184Z,99272.50
2023-04-15T13:39:52.094Z,99272.50
2023-04-15T13:42:56.225Z,99279.94
2023-04-15T13:45:58.956Z,99281.62
2023-04-15T13:49:02.447Z,99271.63
2023-04-15T13:52:05.129Z,99278.81
2023-04-15T13:55:20.490Z,99281.75
2023-04-15T13:58:25.093Z,99285.06
2023-04-15T14:01:28.992Z,99286.75
2023-04-15T14:04:32.831Z,99290.00
2023-04-15T14:07:35.986Z,99289.19
2023-04-15T14:10:38.869Z,99286.50
2023-04-15T14:13:42.292Z,99292.00
2023-04-15T14:16:45.494Z,99303.09
2023-04-15T14:19:48.499Z,99300.03
2023-04-15T14:22:52.453Z,99305.38
2023-04-15T14:25:55.150Z,99297.59
2023-04-15T14:29:01.197Z,99300.22
2023-04-15T14:32:12.049Z,99311.75
2023-04-15T14:35:15.974Z,99313.97
2023-04-15T14:38:24.560Z,99319.00
2023-04-15T14:41:27.827Z,99323.03
2023-04-15T18:57:42.895Z,99575.63
2023-04-15T19:00:51.017Z,99588.78
2023-04-15T19:03:56.284Z,99582.91
2023-04-15T19:07:00.652Z,99589.03
2023-04-15T19:10:09.339Z,99595.47
2023-04-15T19:13:18.811Z,99601.41
2023-04-15T19:16:25.906Z,99607.22
2023-04-15T19:19:56.941Z,99613.44
2023-04-15T19:23:13.830Z,99615.59
2023-04-15T19:26:19.111Z,99619.87
2023-04-15T19:29:23.689Z,99613.53
2023-04-15T19:32:31.796Z,99627.56
2023-04-15T19:36:07.533Z,99625.63
2023-04-15T19:39:15.722Z,99629.34
2023-04-15T19:42:21.064Z,99633.53
2023-04-15T19:45:28.277Z,99633.41
2023-04-15T19:48:33.326Z,99638.78
2023-04-15T19:51:39.388Z,99641.75
2023-04-15T19:54:48.382Z,99637.84
2023-04-15T19:57:55.478Z,99644.41
2023-04-15T20:01:01.497Z,99645.47
2023-04-15T20:04:08.096Z,99643.09
2023-04-15T20:07:22.039Z,99655.75
2023-04-15T20:10:26.722Z,99653.38
2023-04-15T20:13:30.426Z,99663.66
2023-04-15T20:16:35.673Z,99656.59
2023-04-15T20:19:42.096Z,99664.38
2023-04-15T20:22:47.427Z,99657.94
2023-04-15T20:25:54.847Z,99657.44
2023-04-15T20:28:59.879Z,99654.38
2023-04-15T20:32:05.113Z,99654.38
2023-04-15T20:35:10.169Z,99652.44
2023-04-15T20:38:15.447Z,99658.41
2023-04-15T20:41:21.879Z,99656.59
2023-04-15T20:44:28.550Z,99656.47
2023-04-15T20:47:32.315Z,99670.12
2023-04-15T20:50:37.043Z,99674.69
2023-04-15T20:53:42.176Z,99675.72
2023-04-15T20:56:45.062Z,99676.72
2023-04-15T20:59:48.383Z,99673.94
2023-04-15T21:02:51.937Z,99679.44
2023-04-15T21:05:57.402Z,99689.97
2023-04-15T21:09:01.189Z,99690.13
2023-04-15T21:12:04.484Z,99697.88
2023-04-15T21:15:08.461Z,99698.09
2023-04-15T21:18:11.658Z,99709.91
2023-04-15T21:21:14.598Z,99709.38
2023-04-15T21:24:18.059Z,99710.28
2023-04-15T21:27:21.079Z,99722.81
2023-04-15T21:30:24.387Z,99718.03
2023-04-15T21:33:27.286Z,99723.56
2023-04-15T21:36:32.661Z,99723.62
2023-04-15T21:39:35.918Z,99726.00
2023-04-15T21:42:41.756Z,99730.06
2023-04-15T21:45:51.380Z,99730.53
2023-04-15T21:49:08.308Z,99725.59
2023-04-15T21:52:12.012Z,99732.69
2023-04-15T21:55:15.163Z,99726.31
2023-04-15T21:58:18.915Z,99731.91
2023-04-15T22:01:25.939Z,99723.56
2023-04-15T22:04:35.586Z,99729.75
2023-04-15T22:07:38.485Z,99726.84
2023-04-15T22:10:44.683Z,99728.09
2023-04-15T22:13:50.418Z,99732.22
2023-04-15T22:16:58.462Z,99741.50
2023-04-15T22:20:01.685Z,99740.22
2023-04-15T22:23:09.063Z,99730.06
2023-04-15T22:26:12.261Z,99737.75
2023-04-15T22:29:16.913Z,99733.69
2023-04-15T22:32:20.993Z,99741.16
2023-04-15T22:35:24.372Z,99745.28
2023-04-15T22:38:27.590Z,99744.38
2023-04-15T22:41:30.666Z,99744.38
2023-04-15T22:44:33.923Z,99751.53
2023-04-15T22:47:37.409Z,99744.56
2023-04-15T22:50:40.723Z,99738.09
2023-04-15T22:53:44.113Z,99743.19
2023-04-15T22:56:47.099Z,99749.56
2023-04-15T22:59:50.188Z,99754.81
2023-04-15T23:02:52.933Z,99745.94
2023-04-15T23:05:56.501Z,99748.09
2023-04-15T23:08:59.637Z,99748.69
2023-04-15T23:12:06.375Z,99751.22
2023-04-15T23:15:09.568Z,99746.06
2023-04-15T23:18:12.952Z,99742.78
2023-04-15T23:21:17.139Z,99744.97
2023-04-15T23:24:23.110Z,99739.97
2023-04-15T23:27:25.729Z,99747.06
2023-04-15T23:30:28.982Z,99755.25
2023-04-15T23:33:32.683Z,99764.75
2023-04-15T23:36:36.179Z,99769.47
2023-04-15T23:39:39.052Z,99768.22
2023-04-15T23:42:42.524Z,99766.31
2023-04-15T23:45:45.367Z,99771.47
2023-04-15T23:48:51.772Z,99764.97
2023-04-15T23:51:54.874Z,99767.59
2023-04-15T23:55:00.232Z,99774.72
2023-04-15T23:58:04.134Z,99770.84
